Time;durP1;ratioP1;P1;durP2;ratioP2;P2;SDS_P1;SDS_P2;PMS_P1;PMS_P2;Temp;Humidity;BMP_temperature;BMP_pressure;BME280_temperature;BME280_humidity;BME280_pressure;Samples;Min_cycle;Max_cycle;Signal;HPM_P1;HPM_P2
2021/03/07 04:05:10;;;;;;;9.35;4.10;;;;;;;-7.45;100.00;100927.40;1728494;78;21615;-58
2021/03/07 04:07:42;;;;;;;10.98;4.45;;;;;;;-7.40;100.00;100930.59;1727942;80;21558;-61
2021/03/07 04:10:10;;;;;;;8.25;3.52;;;;;;;-7.16;100.00;100928.50;1672981;83;21197;-58
2021/03/07 04:12:39;;;;;;;8.80;3.92;;;;;;;-6.77;100.00;100933.02;1722995;80;21138;-61
2021/03/07 04:15:09;;;;;;;9.25;3.87;;;;;;;-6.30;100.00;100926.59;1693382;83;21562;-60
2021/03/07 04:17:37;;;;;;;9.58;4.08;;;;;;;-5.73;100.00;100925.14;1728646;80;21182;-60
2021/03/07 04:20:07;;;;;;;13.35;4.70;;;;;;;-5.10;100.00;100924.23;1689474;83;21161;-59
2021/03/07 04:22:36;;;;;;;13.95;5.25;;;;;;;-4.45;100.00;100919.18;1691912;82;21196;-63
2021/03/07 04:25:05;;;;;;;14.63;4.85;;;;;;;-3.79;100.00;100919.86;1688704;82;21227;-59
2021/03/07 04:27:33;;;;;;;9.95;4.37;;;;;;;-3.13;100.00;100920.41;1685823;82;21272;-61
2021/03/07 04:30:06;;;;;;;9.63;4.00;;;;;;;-2.50;100.00;100924.27;1693146;82;21042;-60
2021/03/07 04:32:35;;;;;;;7.55;3.50;;;;;;;-1.87;100.00;100919.54;1693084;82;21066;-60
2021/03/07 04:35:04;;;;;;;6.97;3.00;;;;;;;-1.31;100.00;100918.00;1692260;82;21073;-58
2021/03/07 04:37:32;;;;;;;7.72;3.25;;;;;;;-0.75;100.00;100917.63;1689526;82;21112;-58
2021/03/07 04:40:01;;;;;;;6.03;3.00;;;;;;;-0.20;100.00;100910.31;1692847;82;21315;-60
2021/03/07 04:42:31;;;;;;;6.12;3.12;;;;;;;0.24;100.00;100910.48;1688124;82;21058;-58
2021/03/07 04:44:59;;;;;;;9.85;4.72;;;;;;;0.63;100.00;100913.89;1687537;82;21030;-59
2021/03/07 04:47:28;;;;;;;13.88;5.92;;;;;;;1.03;100.00;100913.78;1698518;82;21039;-59
2021/03/07 04:49:58;;;;;;;14.78;6.75;;;;;;;1.48;100.00;100907.19;1693891;82;21097;-65
2021/03/07 04:52:26;;;;;;;20.88;8.50;;;;;;;1.91;100.00;100902.82;1692386;82;21233;-58
2021/03/07 04:54:55;;;;;;;27.40;11.50;;;;;;;2.18;100.00;100902.09;1687473;82;21189;-61
2021/03/07 04:57:23;;;;;;;24.95;11.75;;;;;;;2.36;100.00;100905.06;1689708;82;20951;-58
2021/03/07 04:59:53;;;;;;;26.90;14.30;;;;;;;2.29;100.00;100908.20;1692270;82;21159;-60
2021/03/07 05:02:22;;;;;;;17.15;10.20;;;;;;;1.97;100.00;100906.25;1688458;82;21148;-60
2021/03/07 05:04:50;;;;;;;17.00;7.67;;;;;;;1.61;100.00;100914.37;1700184;82;21362;-59
2021/03/07 05:07:18;;;;;;;8.90;5.90;;;;;;;1.30;100.00;100910.58;1705897;82;21039;-60
2021/03/07 05:09:47;;;;;;;9.83;6.33;;;;;;;1.02;100.00;100917.25;1705241;82;21224;-60
2021/03/07 05:12:17;;;;;;;8.40;4.95;;;;;;;0.76;100.00;100917.73;1745057;80;21029;-60
2021/03/07 05:14:47;;;;;;;8.10;4.90;;;;;;;0.47;100.00;100915.38;1743699;80;21228;-60
2021/03/07 05:17:15;;;;;;;8.73;5.47;;;;;;;0.24;100.00;100919.46;1749363;80;21378;-59
2021/03/07 05:19:44;;;;;;;8.20;4.70;;;;;;;0.10;100.00;100910.56;1748535;80;21065;-57
2021/03/07 05:22:13;;;;;;;9.35;5.28;;;;;;;-0.07;100.00;100909.09;1744956;80;20938;-59
2021/03/07 05:24:41;;;;;;;6.87;3.87;;;;;;;-0.16;100.00;100923.76;1748189;80;21259;-60
2021/03/07 05:27:10;;;;;;;7.83;4.42;;;;;;;-0.25;100.00;100914.46;1744611;80;21069;-59
2021/03/07 05:29:38;;;;;;;8.83;4.67;;;;;;;-0.29;100.00;100915.58;1743410;80;21389;-59
2021/03/07 05:32:06;;;;;;;7.97;4.45;;;;;;;-0.36;100.00;100921.18;1752726;80;21160;-61
2021/03/07 05:34:35;;;;;;;7.05;4.37;;;;;;;-0.45;100.00;100923.87;1749221;80;21014;-59
2021/03/07 05:37:03;;;;;;;8.98;3.80;;;;;;;-0.53;100.00;100915.81;1744661;80;21175;-60
2021/03/07 05:39:31;;;;;;;6.05;3.87;;;;;;;-0.63;100.00;100923.72;1750259;80;21060;-59
2021/03/07 05:42:00;;;;;;;8.00;4.15;;;;;;;-0.67;100.00;100923.09;1746492;80;21391;-60
2021/03/07 05:44:28;;;;;;;6.60;3.72;;;;;;;-0.71;100.00;100922.09;1750033;80;21093;-61
2021/03/07 05:46:57;;;;;;;8.05;3.58;;;;;;;-0.74;100.00;100930.31;1747829;80;21056;-59
2021/03/07 05:49:27;;;;;;;6.65;3.67;;;;;;;-0.69;100.00;100922.80;1743942;80;21007;-59
2021/03/07 05:51:56;;;;;;;7.65;3.67;;;;;;;-0.60;100.00;100923.54;1745611;80;21187;-61
2021/03/07 05:54:24;;;;;;;7.92;3.87;;;;;;;-0.51;100.00;100913.99;1748094;80;23661;-59
2021/03/07 05:56:53;;;;;;;7.25;3.45;;;;;;;-0.44;100.00;100924.69;1750980;80;21247;-59
2021/03/07 05:59:22;;;;;;;7.33;3.52;;;;;;;-0.42;100.00;100922.38;1747575;80;21132;-59
2021/03/07 06:01:50;;;;;;;7.65;4.05;;;;;;;-0.38;100.00;100912.75;1748895;80;20989;-59
2021/03/07 06:04:19;;;;;;;9.50;4.67;;;;;;;-0.28;100.00;100913.83;1747233;80;21034;-60
2021/03/07 06:06:47;;;;;;;7.90;3.92;;;;;;;-0.17;100.00;100907.56;1694014;83;21973;-59
2021/03/07 06:09:20;;;;;;;7.95;3.90;;;;;;;0.03;100.00;100914.44;1741908;80;21050;-60
2021/03/07 06:11:51;;;;;;;6.50;3.50;;;;;;;0.28;100.00;100901.67;1696918;83;21546;-59
2021/03/07 06:14:29;;;;;;;9.50;4.08;;;;;;;0.70;100.00;100904.40;1746690;80;21121;-59
2021/03/07 06:17:03;;;;;;;10.38;4.90;;;;;;;1.23;100.00;100905.50;1692910;83;21173;-59
2021/03/07 06:19:50;;;;;;;8.10;4.60;;;;;;;1.51;100.00;100906.95;1745410;80;21447;-60
2021/03/07 06:22:19;;;;;;;10.35;6.35;;;;;;;1.78;100.00;100902.05;1694237;83;21181;-60
2021/03/07 06:24:47;;;;;;;6.55;3.95;;;;;;;2.43;100.00;100892.56;1749654;80;21176;-61
2021/03/07 06:27:19;;;;;;;6.08;3.70;;;;;;;3.01;100.00;100900.19;1696971;83;21064;-60
2021/03/07 06:29:59;;;;;;;8.05;4.28;;;;;;;3.40;100.00;100889.34;1744257;80;21577;-60
2021/03/07 06:32:33;;;;;;;6.87;3.77;;;;;;;3.74;100.00;100883.27;1691813;83;21222;-60
2021/03/07 06:35:04;;;;;;;5.77;3.70;;;;;;;4.16;98.61;100880.25;1691009;82;21297;-59
2021/03/07 06:37:32;;;;;;;6.60;4.12;;;;;;;4.53;91.40;100884.47;1690198;83;21756;-60
2021/03/07 06:40:00;;;;;;;6.00;3.33;;;;;;;4.93;85.70;100877.72;1744989;80;21089;-59
2021/03/07 06:42:30;;;;;;;6.10;3.40;;;;;;;5.27;81.80;100876.92;1694607;83;21502;-59
2021/03/07 06:45:01;;;;;;;5.73;3.43;;;;;;;5.50;78.28;100878.31;1695895;82;21462;-62
2021/03/07 06:47:30;;;;;;;8.10;3.20;;;;;;;5.74;70.86;100866.75;1699304;82;21841;-60
2021/03/07 06:50:15;;;;;;;5.73;3.77;;;;;;;5.76;67.30;100854.51;1688970;83;21153;-59
2021/03/07 06:52:50;;;;;;;5.87;4.00;;;;;;;5.85;66.24;100857.55;1689730;83;21472;-64
2021/03/07 06:55:19;;;;;;;6.40;4.03;;;;;;;6.21;62.20;100844.40;1705587;82;21976;-59
2021/03/07 06:57:47;;;;;;;7.60;4.30;;;;;;;6.21;62.20;100844.40;1705279;82;22058;-61
2021/03/07 07:00:17;;;;;;;8.10;4.33;;;;;;;6.39;65.80;100837.17;1707823;82;21774;-60
2021/03/07 07:03:07;;;;;;;7.07;4.43;;;;;;;6.86;64.83;100834.05;1706514;82;22226;-64
2021/03/07 07:05:43;;;;;;;6.07;3.90;;;;;;;7.31;59.82;100830.61;1707662;82;21802;-60
2021/03/07 07:08:13;;;;;;;7.57;4.43;;;;;;;7.30;55.02;100834.17;1703063;82;21074;-65
2021/03/07 07:10:53;;;;;;;6.07;4.10;;;;;;;7.13;55.30;100831.11;1707736;82;22359;-60
2021/03/07 07:13:21;;;;;;;6.47;3.80;;;;;;;7.13;53.77;100833.70;1706554;81;21801;-59
2021/03/07 07:16:07;;;;;;;6.43;4.17;;;;;;;7.06;52.05;100827.79;1705726;82;21763;-62
2021/03/07 07:18:37;;;;;;;7.27;3.80;;;;;;;7.04;50.80;100830.99;1704358;82;21866;-59
2021/03/07 07:21:09;;;;;;;8.43;3.77;;;;;;;7.01;49.65;100829.20;1709751;82;21831;-60
2021/03/07 07:23:38;;;;;;;6.03;3.77;;;;;;;6.99;49.71;100833.22;1703793;82;21913;-65
2021/03/07 07:26:07;;;;;;;6.10;4.30;;;;;;;7.07;49.39;100827.30;1709618;82;21145;-59
2021/03/07 07:28:37;;;;;;;7.42;3.83;;;;;;;7.03;46.94;100816.41;1703428;82;21909;-61
2021/03/07 07:31:10;;;;;;;7.80;4.03;;;;;;;6.79;47.49;100808.38;1703899;82;21220;-60
2021/03/07 07:34:09;;;;;;;6.70;4.20;;;;;;;6.72;48.85;100812.51;1702253;82;21826;-65
2021/03/07 07:36:55;;;;;;;6.20;3.77;;;;;;;6.85;48.65;100816.05;1703744;82;21556;-59
2021/03/07 07:39:28;;;;;;;6.20;3.53;;;;;;;6.91;46.95;100814.18;1681412;83;21809;-60
2021/03/07 07:41:57;;;;;;;5.67;3.60;;;;;;;6.79;46.20;100811.78;1698327;82;21957;-61
2021/03/07 07:44:31;;;;;;;5.93;3.33;;;;;;;6.73;46.60;100808.47;1706314;82;21865;-60
2021/03/07 07:47:04;;;;;;;5.73;3.20;;;;;;;6.82;45.40;100803.73;1704139;82;21809;-61
2021/03/07 07:49:52;;;;;;;5.70;3.20;;;;;;;6.78;44.32;100804.14;1704967;82;21637;-61
2021/03/07 07:52:32;;;;;;;6.63;3.27;;;;;;;6.73;45.04;100806.36;1701328;82;21845;-62
2021/03/07 07:55:09;;;;;;;8.20;5.30;;;;;;;6.77;45.62;100798.63;1701995;82;21850;-59
2021/03/07 07:57:45;;;;;;;10.40;5.80;;;;;;;6.97;46.81;100799.32;1703255;82;21855;-59
2021/03/07 08:00:19;;;;;;;8.10;4.90;;;;;;;7.27;45.07;100782.61;1705286;82;21836;-58
2021/03/07 08:02:53;;;;;;;6.80;4.17;;;;;;;7.16;46.26;100781.53;1703073;82;22412;-60
2021/03/07 08:05:28;;;;;;;6.47;4.03;;;;;;;7.16;46.26;100781.53;1703728;82;21739;-60
2021/03/07 08:08:08;;;;;;;6.03;4.23;;;;;;;7.06;44.95;100779.02;1704070;82;21933;-61
2021/03/07 08:10:49;;;;;;;5.70;3.53;;;;;;;6.96;44.63;100766.11;1702210;82;21921;-61
2021/03/07 08:13:37;;;;;;;6.37;4.37;;;;;;;6.96;44.63;100766.11;1743887;80;21688;-59
2021/03/07 08:16:07;;;;;;;7.13;4.30;;;;;;;6.91;45.08;100767.05;1746916;80;39151;-60
2021/03/07 08:22:08;;;;;;;6.80;4.53;;;;;;;6.78;45.61;100757.50;1886822;75;22637;-59
2021/03/07 08:24:50;;;;;;;8.03;5.03;;;;;;;6.55;46.96;100743.68;1844664;77;21229;-59
2021/03/07 08:27:36;;;;;;;10.60;5.43;;;;;;;6.55;46.96;100743.68;1816655;77;21398;-60
2021/03/07 08:30:11;;;;;;;11.23;6.93;;;;;;;6.69;47.37;100745.43;1807328;78;21643;-59
2021/03/07 08:32:43;;;;;;;10.93;6.27;;;;;;;6.79;47.23;100738.42;1776910;80;21329;-59
2021/03/07 08:35:24;;;;;;;12.13;5.50;;;;;;;6.90;48.38;100729.63;1801849;78;21216;-59
2021/03/07 08:38:15;;;;;;;8.87;5.80;;;;;;;7.11;46.51;100728.02;1792318;79;22592;-62
2021/03/07 08:40:57;;;;;;;8.40;5.20;;;;;;;7.13;46.33;100723.03;1790559;78;21315;-59
2021/03/07 08:43:31;;;;;;;8.03;5.12;;;;;;;6.95;45.42;100732.09;1770537;79;21471;-60
2021/03/07 08:46:11;;;;;;;8.93;4.53;;;;;;;6.78;47.37;100721.23;1783563;79;20999;-60
2021/03/07 08:48:46;;;;;;;11.37;6.27;;;;;;;6.85;48.00;100701.54;1796943;79;21680;-65
2021/03/07 08:51:17;;;;;;;9.17;5.37;;;;;;;6.87;47.68;100708.70;1789562;79;21391;-58
2021/03/07 08:53:45;;;;;;;8.70;4.77;;;;;;;6.86;47.81;100707.53;1794971;79;22106;-59
2021/03/07 08:56:14;;;;;;;10.90;5.53;;;;;;;6.82;46.17;100689.72;1799406;78;21742;-63
2021/03/07 08:58:47;;;;;;;8.37;5.07;;;;;;;6.62;46.56;100693.87;1797526;79;21231;-61
2021/03/07 09:01:15;;;;;;;7.97;4.77;;;;;;;6.41;45.24;100681.20;1795258;79;22786;-59
2021/03/07 09:04:03;;;;;;;8.07;4.77;;;;;;;6.26;45.86;100688.16;1793237;79;21440;-59
2021/03/07 09:06:39;;;;;;;8.13;5.20;;;;;;;6.14;47.50;100690.61;1783769;79;21214;-67
2021/03/07 09:09:16;;;;;;;8.67;4.83;;;;;;;6.05;47.03;100697.44;1790562;78;21804;-61
2021/03/07 09:12:02;;;;;;;7.73;4.63;;;;;;;6.00;45.73;100690.59;1756863;80;21370;-60
2021/03/07 09:14:38;;;;;;;8.30;5.00;;;;;;;6.03;47.31;100684.32;1776655;80;21325;-60
2021/03/07 09:17:21;;;;;;;8.55;4.92;;;;;;;6.28;47.66;100684.11;1814964;78;21414;-60
2021/03/07 09:19:59;;;;;;;8.70;4.33;;;;;;;6.60;47.68;100668.61;1749529;79;22948;-61
2021/03/07 09:22:28;;;;;;;6.80;4.17;;;;;;;6.48;45.73;100684.84;1743397;82;21023;-61
2021/03/07 09:25:10;;;;;;;8.80;4.15;;;;;;;6.11;45.87;100681.02;1681007;85;21384;-59
2021/03/07 09:27:40;;;;;;;8.40;4.70;;;;;;;5.83;48.24;100678.35;1702711;83;21531;-61
2021/03/07 09:30:20;;;;;;;8.43;4.37;;;;;;;5.86;49.50;100664.66;1701817;84;21118;-60
2021/03/07 09:32:49;;;;;;;6.67;3.70;;;;;;;5.92;48.46;100677.55;1692471;84;21058;-59
2021/03/07 09:35:34;;;;;;;8.35;4.08;;;;;;;5.71;46.12;100673.02;1694286;84;21318;-64
2021/03/07 09:38:07;;;;;;;10.80;6.28;;;;;;;5.25;46.83;100671.56;1720389;82;21279;-60
2021/03/07 09:40:37;;;;;;;9.85;5.47;;;;;;;4.74;49.07;100670.58;1734791;82;20988;-60
2021/03/07 09:43:09;;;;;;;7.40;3.87;;;;;;;4.63;51.83;100664.58;1717767;82;20943;-61
2021/03/07 09:45:39;;;;;;;9.10;4.20;;;;;;;4.72;48.51;100664.71;1730823;82;21224;-60
2021/03/07 09:48:09;;;;;;;7.20;3.60;;;;;;;4.82;48.38;100653.92;1721716;82;21156;-60
2021/03/07 09:50:40;;;;;;;5.72;3.55;;;;;;;4.90;46.68;100654.53;1718636;82;22410;-60
2021/03/07 09:53:09;;;;;;;7.85;3.87;;;;;;;5.01;47.49;100655.68;1714138;82;21198;-60
2021/03/07 09:55:37;;;;;;;7.30;3.98;;;;;;;5.11;46.55;100640.52;1721055;82;22312;-61
2021/03/07 09:58:07;;;;;;;6.08;3.47;;;;;;;5.05;47.51;100639.77;1704827;82;21190;-60
2021/03/07 10:00:40;;;;;;;6.92;4.25;;;;;;;4.93;47.19;100641.34;1719427;82;21190;-59
2021/03/07 10:03:24;;;;;;;7.65;4.20;;;;;;;4.95;47.69;100632.48;1725551;82;21206;-59
2021/03/07 10:06:19;;;;;;;5.95;3.22;;;;;;;4.94;47.49;100642.48;1708321;83;21179;-59
2021/03/07 10:09:06;;;;;;;5.50;3.20;;;;;;;4.68;47.80;100620.27;1694769;84;21489;-60
2021/03/07 10:11:36;;;;;;;6.37;3.42;;;;;;;4.35;49.22;100620.16;1692727;84;20958;-58
2021/03/07 10:14:05;;;;;;;6.58;3.75;;;;;;;4.09;50.22;100621.13;1699211;83;21526;-58
2021/03/07 10:16:34;;;;;;;6.15;3.27;;;;;;;3.99;50.68;100622.88;1731803;82;21965;-58
2021/03/07 10:19:08;;;;;;;8.03;3.50;;;;;;;4.00;51.52;100609.03;1720460;82;21148;-59
2021/03/07 10:21:36;;;;;;;6.08;2.90;;;;;;;4.10;51.49;100601.66;1734003;82;21079;-64
2021/03/07 10:24:19;;;;;;;5.95;3.10;;;;;;;4.11;49.27;100599.42;1734599;82;21055;-59
2021/03/07 10:26:49;;;;;;;7.00;3.25;;;;;;;4.11;49.69;100594.26;1673539;85;21682;-59
2021/03/07 10:29:25;;;;;;;4.78;2.85;;;;;;;4.19;50.50;100586.33;1731108;82;21208;-59
2021/03/07 10:32:15;;;;;;;8.45;4.85;;;;;;;4.47;49.12;100569.23;1738980;81;21041;-59
2021/03/07 10:34:50;;;;;;;6.62;3.65;;;;;;;4.82;47.94;100569.50;1737854;82;21551;-59
2021/03/07 10:37:38;;;;;;;6.83;3.45;;;;;;;4.97;46.97;100567.30;1731873;82;20945;-59
2021/03/07 10:40:10;;;;;;;4.97;2.62;;;;;;;4.84;46.94;100559.02;1734564;82;21096;-59
2021/03/07 10:42:41;;;;;;;4.30;2.58;;;;;;;4.85;48.00;100547.75;1738052;82;21212;-65
2021/03/07 10:45:22;;;;;;;4.78;2.12;;;;;;;5.01;46.44;100514.39;1732442;81;22100;-60
2021/03/07 10:48:09;;;;;;;4.12;2.05;;;;;;;5.05;45.27;100531.24;1735711;82;21042;-60
2021/03/07 10:50:48;;;;;;;4.10;1.98;;;;;;;5.03;44.40;100524.58;1742497;81;21081;-60
2021/03/07 10:53:17;;;;;;;4.58;2.15;;;;;;;4.99;45.48;100517.59;1739238;82;21495;-59
2021/03/07 10:55:51;;;;;;;4.53;2.08;;;;;;;5.06;45.62;100524.30;1739064;82;21147;-60
2021/03/07 10:58:20;;;;;;;34.03;24.35;;;;;;;5.17;44.37;100516.86;1730048;82;21109;-58
2021/03/07 11:00:48;;;;;;;7.30;3.90;;;;;;;5.21;44.21;100506.58;1734079;82;21137;-59
2021/03/07 11:03:18;;;;;;;4.87;3.25;;;;;;;5.13;42.99;100499.05;1731996;82;21530;-59
2021/03/07 11:05:47;;;;;;;4.53;2.10;;;;;;;4.94;43.92;100487.49;1739933;82;21648;-65
2021/03/07 11:08:17;;;;;;;4.92;1.98;;;;;;;4.87;45.07;100477.38;1740965;82;21773;-59
2021/03/07 11:10:47;;;;;;;3.65;2.02;;;;;;;4.79;45.73;100483.73;1733872;82;21044;-59
2021/03/07 11:13:15;;;;;;;4.67;2.02;;;;;;;4.75;46.04;100488.84;1734316;82;20977;-60
2021/03/07 11:15:44;;;;;;;5.42;2.42;;;;;;;4.68;46.18;100479.53;1731959;82;21554;-59
2021/03/07 11:18:12;;;;;;;3.50;1.95;;;;;;;4.59;47.29;100468.28;1735149;82;21149;-59
2021/03/07 11:20:41;;;;;;;4.72;2.80;;;;;;;4.50;46.08;100465.70;1741339;81;21815;-60
2021/03/07 11:23:09;;;;;;;6.65;3.00;;;;;;;4.31;46.80;100444.61;1718279;82;21200;-62
2021/03/07 11:25:39;;;;;;;8.20;2.98;;;;;;;4.06;48.54;100466.16;1712880;82;21644;-58
2021/03/07 11:28:08;;;;;;;6.30;2.60;;;;;;;3.92;50.78;100463.97;1719551;82;21489;-58
2021/03/07 11:30:37;;;;;;;4.50;2.40;;;;;;;3.95;51.33;100468.06;1728263;82;21802;-58
2021/03/07 11:33:06;;;;;;;5.05;2.72;;;;;;;4.03;51.00;100449.66;1723003;82;21202;-61
2021/03/07 11:35:35;;;;;;;5.62;2.62;;;;;;;3.96;51.73;100440.83;1720911;82;21191;-59
2021/03/07 11:38:03;;;;;;;5.00;2.77;;;;;;;3.86;52.35;100443.87;1724518;82;21559;-59
2021/03/07 11:40:32;;;;;;;6.55;2.33;;;;;;;3.82;55.70;100418.02;1716682;82;21232;-59
2021/03/07 11:43:00;;;;;;;5.62;3.05;;;;;;;3.87;54.53;100434.73;1711647;82;21610;-58
2021/03/07 11:45:30;;;;;;;6.72;3.98;;;;;;;3.90;53.32;100417.70;1722684;82;21383;-59
2021/03/07 11:47:58;;;;;;;6.55;3.58;;;;;;;3.80;53.72;100436.69;1688948;84;21536;-63
2021/03/07 11:50:27;;;;;;;5.60;2.95;;;;;;;3.63;57.07;100433.80;1708273;83;22125;-58
2021/03/07 11:52:55;;;;;;;7.05;3.17;;;;;;;3.60;57.48;100422.97;1688775;84;21561;-58
2021/03/07 11:55:24;;;;;;;8.50;4.05;;;;;;;3.61;56.91;100418.16;1718459;83;21179;-59
2021/03/07 11:57:52;;;;;;;6.25;3.35;;;;;;;3.61;57.55;100407.36;1714151;82;22680;-59
2021/03/07 12:00:21;;;;;;;5.10;2.90;;;;;;;3.61;57.30;100426.70;1711797;82;21238;-59
2021/03/07 12:02:49;;;;;;;4.92;2.92;;;;;;;3.51;55.18;100418.12;1722899;82;21681;-59
2021/03/07 12:05:18;;;;;;;6.42;3.80;;;;;;;3.32;55.56;100409.88;1716081;82;21564;-59
2021/03/07 12:07:47;;;;;;;6.95;3.40;;;;;;;3.15;58.19;100413.11;1725823;82;21053;-58
2021/03/07 12:10:16;;;;;;;6.92;2.85;;;;;;;3.01;60.60;100411.70;1712882;82;22632;-58
2021/03/07 12:12:44;;;;;;;6.28;3.27;;;;;;;2.92;62.91;100399.61;1720635;82;21079;-58
2021/03/07 12:15:14;;;;;;;6.22;3.47;;;;;;;2.93;63.05;100408.96;1717535;82;21175;-59
2021/03/07 12:17:42;;;;;;;7.03;3.20;;;;;;;2.97;63.47;100415.48;1712188;82;21086;-58
2021/03/07 12:20:12;;;;;;;5.25;2.95;;;;;;;2.99;63.88;100409.71;1708912;82;21972;-58
2021/03/07 12:22:40;;;;;;;7.78;3.52;;;;;;;2.97;67.73;100394.07;1720694;82;21256;-59
2021/03/07 12:25:10;;;;;;;6.78;3.50;;;;;;;3.02;69.80;100408.64;1701016;82;21082;-59
2021/03/07 12:27:39;;;;;;;7.70;3.87;;;;;;;3.03;66.10;100395.66;1701458;82;20941;-59
2021/03/07 12:30:08;;;;;;;6.83;3.83;;;;;;;2.92;65.53;100406.05;1703948;82;21618;-59
2021/03/07 12:32:36;;;;;;;5.80;3.10;;;;;;;2.85;66.21;100385.63;1717700;82;21009;-58
2021/03/07 12:35:06;;;;;;;7.42;3.30;;;;;;;2.88;62.34;100398.25;1701314;82;22652;-57
2021/03/07 12:37:34;;;;;;;7.37;3.20;;;;;;;2.90;65.12;100390.72;1721917;82;21011;-59
2021/03/07 12:40:06;;;;;;;5.72;3.35;;;;;;;2.97;64.15;100391.50;1721025;82;21884;-58
2021/03/07 12:42:34;;;;;;;6.30;3.08;;;;;;;2.94;61.51;100377.11;1715524;82;21161;-59
2021/03/07 12:45:03;;;;;;;6.25;3.15;;;;;;;2.88;62.41;100365.59;1720048;82;21142;-59
2021/03/07 12:47:31;;;;;;;6.28;3.42;;;;;;;2.83;60.91;100362.56;1720846;82;21819;-59
2021/03/07 12:50:01;;;;;;;6.50;3.67;;;;;;;2.72;61.62;100365.23;1727351;82;21129;-62
2021/03/07 12:52:30;;;;;;;8.63;4.72;;;;;;;2.64;62.31;100358.16;1724335;82;21465;-60
2021/03/07 12:54:58;;;;;;;5.28;3.22;;;;;;;2.61;65.24;100354.59;1725535;82;21066;-59
2021/03/07 12:57:27;;;;;;;7.05;3.87;;;;;;;2.55;65.54;100340.12;1728167;82;21122;-60
2021/03/07 12:59:55;;;;;;;7.55;4.87;;;;;;;2.49;67.89;100343.20;1715232;82;21369;-58
2021/03/07 13:02:24;;;;;;;7.65;2.90;;;;;;;2.45;69.10;100341.36;1718334;82;21245;-58
2021/03/07 13:04:53;;;;;;;7.12;3.87;;;;;;;2.42;67.35;100330.03;1720502;82;21177;-58
2021/03/07 13:07:21;;;;;;;6.30;4.00;;;;;;;2.37;67.18;100326.56;1725456;82;21604;-59
2021/03/07 13:09:51;;;;;;;7.50;3.75;;;;;;;2.25;69.63;100343.02;1717392;82;21232;-62
2021/03/07 13:12:19;;;;;;;7.15;3.40;;;;;;;2.18;73.79;100344.47;1712706;82;22143;-58
2021/03/07 13:14:50;;;;;;;6.47;3.42;;;;;;;2.13;72.02;100345.33;1724902;82;21223;-58
2021/03/07 13:17:18;;;;;;;6.50;2.87;;;;;;;2.01;74.86;100344.58;1716524;82;20942;-58
2021/03/07 13:19:47;;;;;;;7.37;4.25;;;;;;;2.00;76.83;100331.84;1661168;85;21132;-58
2021/03/07 13:22:16;;;;;;;9.50;3.50;;;;;;;2.00;77.66;100337.78;1685835;84;22658;-59
2021/03/07 13:24:45;;;;;;;5.92;3.22;;;;;;;2.04;79.57;100336.59;1678116;84;21331;-58
2021/03/07 13:27:14;;;;;;;7.12;3.10;;;;;;;2.05;78.66;100328.44;1683601;84;21210;-64
2021/03/07 13:29:42;;;;;;;5.25;2.87;;;;;;;1.99;77.28;100324.59;1669135;85;21454;-58
2021/03/07 13:32:13;;;;;;;4.83;2.83;;;;;;;1.93;78.59;100314.80;1689190;84;21609;-61
2021/03/07 13:34:42;;;;;;;6.85;3.25;;;;;;;1.89;81.60;100323.23;1715011;82;21138;-59
2021/03/07 13:37:11;;;;;;;6.05;3.20;;;;;;;1.89;83.97;100310.86;1722436;82;21212;-58
2021/03/07 13:39:39;;;;;;;6.55;3.47;;;;;;;1.87;83.62;100307.61;1719414;82;21652;-59
2021/03/07 13:42:08;;;;;;;5.58;3.00;;;;;;;1.83;82.45;100298.53;1724735;82;21084;-58
2021/03/07 13:44:36;;;;;;;6.35;3.12;;;;;;;1.74;82.71;100301.36;1717925;82;21178;-63
2021/03/07 13:47:08;;;;;;;6.37;3.33;;;;;;;1.66;85.32;100299.41;1721779;82;21606;-61
2021/03/07 13:49:37;;;;;;;6.60;3.17;;;;;;;1.62;85.80;100290.80;1716294;82;22693;-60
2021/03/07 13:52:07;;;;;;;6.75;3.60;;;;;;;1.54;87.37;100286.28;1724521;82;21157;-59
2021/03/07 13:54:35;;;;;;;5.97;3.45;;;;;;;1.46;89.16;100283.05;1722817;82;21118;-62
2021/03/07 13:57:04;;;;;;;5.58;3.00;;;;;;;1.43;89.94;100265.78;1712655;82;21090;-59
2021/03/07 13:59:34;;;;;;;7.53;4.30;;;;;;;1.39;87.56;100264.40;1719297;82;21165;-58
2021/03/07 14:02:05;;;;;;;10.93;6.83;;;;;;;1.32;89.15;100259.41;1712809;82;21384;-57
2021/03/07 14:04:33;;;;;;;6.97;3.92;;;;;;;1.26;91.47;100264.58;1718736;82;21140;-63
2021/03/07 14:07:02;;;;;;;6.53;3.30;;;;;;;1.23;93.54;100264.01;1713317;82;21254;-59
2021/03/07 14:09:31;;;;;;;6.80;3.67;;;;;;;1.21;95.08;100255.97;1715561;82;21547;-60
2021/03/07 14:12:02;;;;;;;6.45;3.65;;;;;;;1.16;94.43;100246.98;1721509;82;21016;-58
2021/03/07 14:14:32;;;;;;;9.38;4.80;;;;;;;1.09;95.28;100267.19;1716566;82;22118;-59
2021/03/07 14:17:01;;;;;;;9.10;4.40;;;;;;;1.02;97.65;100255.78;1723486;82;21062;-58
2021/03/07 14:19:30;;;;;;;7.75;3.92;;;;;;;0.96;100.00;100248.58;1720476;82;21033;-58
2021/03/07 14:21:58;;;;;;;7.53;4.05;;;;;;;0.91;100.00;100250.67;1716520;82;21150;-58
2021/03/07 14:24:28;;;;;;;8.05;4.45;;;;;;;0.84;100.00;100249.08;1713754;82;21060;-58
2021/03/07 14:26:56;;;;;;;7.35;3.85;;;;;;;0.77;100.00;100249.68;1715858;82;21211;-58
2021/03/07 14:29:26;;;;;;;8.55;4.65;;;;;;;0.68;100.00;100228.95;1713667;82;21163;-58
2021/03/07 14:31:54;;;;;;;7.70;4.03;;;;;;;0.61;100.00;100231.64;1724473;82;21132;-60
2021/03/07 14:34:23;;;;;;;8.60;4.92;;;;;;;0.55;100.00;100223.59;1717706;82;21169;-59
2021/03/07 14:36:51;;;;;;;9.13;4.67;;;;;;;0.47;100.00;100213.94;1649711;84;21584;-59
2021/03/07 14:39:20;;;;;;;9.30;4.83;;;;;;;0.39;100.00;100213.72;1718718;82;21152;-61
2021/03/07 14:41:48;;;;;;;9.45;5.65;;;;;;;0.31;100.00;100203.25;1665725;85;21122;-66
2021/03/07 14:44:17;;;;;;;7.80;4.80;;;;;;;0.23;100.00;100194.86;1692424;84;21580;-58
2021/03/07 14:46:45;;;;;;;8.13;4.70;;;;;;;0.16;100.00;100197.08;1671479;84;21592;-61
2021/03/07 14:49:13;;;;;;;7.70;4.40;;;;;;;0.08;100.00;100199.41;1715876;82;21149;-59
2021/03/07 14:51:43;;;;;;;8.73;4.53;;;;;;;0.01;100.00;100196.97;1714188;82;21418;-63
2021/03/07 14:54:15;;;;;;;10.28;5.75;;;;;;;-0.08;100.00;100189.95;1669284;85;21233;-59
2021/03/07 14:56:43;;;;;;;16.32;7.55;;;;;;;-0.14;100.00;100187.88;1684326;84;21194;-59
2021/03/07 14:59:12;;;;;;;13.88;6.40;;;;;;;-0.22;100.00;100176.12;1679375;84;20994;-57
2021/03/07 15:01:41;;;;;;;18.48;7.92;;;;;;;-0.31;100.00;100182.25;1663379;84;21649;-63
2021/03/07 15:04:10;;;;;;;12.55;6.83;;;;;;;-0.38;100.00;100199.47;1670111;84;21370;-58
2021/03/07 15:06:39;;;;;;;9.33;5.33;;;;;;;-0.47;100.00;100199.70;1682431;84;21246;-59
2021/03/07 15:09:08;;;;;;;11.15;6.30;;;;;;;-0.54;100.00;100207.48;1681877;84;21184;-59
2021/03/07 15:11:40;;;;;;;9.63;5.65;;;;;;;-0.60;100.00;100209.23;1716669;82;21094;-59
2021/03/07 15:14:10;;;;;;;11.25;5.47;;;;;;;-0.66;100.00;100201.98;1723342;82;21646;-60
2021/03/07 15:16:39;;;;;;;9.10;5.85;;;;;;;-0.72;100.00;100198.11;1725258;82;21464;-59
2021/03/07 15:19:10;;;;;;;10.30;5.70;;;;;;;-0.77;100.00;100200.20;1668430;85;21009;-60
2021/03/07 15:21:39;;;;;;;9.83;5.40;;;;;;;-0.82;100.00;100194.14;1707306;83;21120;-65
2021/03/07 15:24:08;;;;;;;9.28;5.67;;;;;;;-0.87;100.00;100192.83;1709636;83;21498;-61
2021/03/07 15:26:39;;;;;;;9.45;5.53;;;;;;;-0.90;100.00;100187.95;1716007;82;21142;-59
2021/03/07 15:29:08;;;;;;;9.03;5.22;;;;;;;-0.93;100.00;100192.02;1717797;82;21207;-60
2021/03/07 15:31:37;;;;;;;10.15;6.00;;;;;;;-0.99;100.00;100172.79;1714718;82;21160;-58
2021/03/07 15:34:05;;;;;;;10.55;5.87;;;;;;;-1.04;100.00;100166.73;1714805;82;21542;-58
2021/03/07 15:36:35;;;;;;;9.90;5.37;;;;;;;-1.08;100.00;100166.59;1723544;82;21560;-60
2021/03/07 15:39:04;;;;;;;10.25;5.87;;;;;;;-1.14;100.00;100170.86;1722174;82;21141;-59
2021/03/07 15:41:32;;;;;;;8.78;5.65;;;;;;;-1.17;100.00;100172.86;1721790;82;21278;-64
2021/03/07 15:44:01;;;;;;;8.80;5.00;;;;;;;-1.23;100.00;100171.54;1719332;82;22340;-57
2021/03/07 15:46:31;;;;;;;7.87;4.80;;;;;;;-1.26;100.00;100157.22;1722842;82;21622;-58
2021/03/07 15:48:59;;;;;;;6.20;4.28;;;;;;;-1.28;100.00;100164.67;1723766;82;21169;-58
2021/03/07 15:51:28;;;;;;;9.35;4.80;;;;;;;-1.31;100.00;100169.53;1711531;82;21171;-58
2021/03/07 15:53:57;;;;;;;9.78;5.22;;;;;;;-1.33;100.00;100168.80;1686979;84;22383;-59